createdAt,value
2022-10-29T00:02:43.168Z,100690.58
2022-10-29T00:05:11.364Z,100693.00
2022-10-29T00:07:39.080Z,100692.90
2022-10-29T00:10:07.307Z,100692.90
2022-10-29T00:12:35.428Z,100692.04
2022-10-29T00:15:20.941Z,100700.77
2022-10-29T00:18:06.248Z,100700.88
2022-10-29T00:20:34.165Z,100702.45
2022-10-29T00:23:01.797Z,100701.31
2022-10-29T00:25:29.498Z,100697.51
2022-10-29T00:27:57.766Z,100699.44
2022-10-29T00:30:25.349Z,100695.35
2022-10-29T00:32:53.181Z,100692.95
2022-10-29T00:35:21.226Z,100690.74
2022-10-29T00:37:49.046Z,100690.81
2022-10-29T00:40:16.944Z,100691.24
2022-10-29T00:42:44.625Z,100689.38
2022-10-29T00:45:20.816Z,100692.90
2022-10-29T00:48:06.298Z,100681.81
2022-10-29T00:50:34.558Z,100675.99
2022-10-29T00:53:02.613Z,100678.16
2022-10-29T00:55:31.038Z,100675.56
2022-10-29T00:58:00.936Z,100683.63
2022-10-29T01:00:28.545Z,100682.44
2022-10-29T01:03:17.908Z,100687.61
2022-10-29T01:05:46.996Z,100688.49
2022-10-29T01:08:16.207Z,100686.36
2022-10-29T01:11:00.383Z,100687.42
2022-10-29T01:13:42.670Z,100687.90
2022-10-29T01:16:27.865Z,100692.41
2022-10-29T01:19:29.446Z,100692.34
2022-10-29T01:22:20.942Z,100688.48
2022-10-29T01:25:22.331Z,100684.54
2022-10-29T01:28:08.519Z,100686.73
2022-10-29T01:31:04.339Z,100680.70
2022-10-29T01:34:01.195Z,100681.94
2022-10-29T01:37:04.493Z,100681.80
2022-10-29T01:39:43.713Z,100681.54
2022-10-29T01:42:34.831Z,100680.97
2022-10-29T01:45:27.044Z,100680.52
2022-10-29T01:48:18.200Z,100678.46
2022-10-29T01:50:52.496Z,100683.59
2022-10-29T01:53:40.499Z,100684.17
2022-10-29T01:56:08.580Z,100692.06
2022-10-29T01:58:37.876Z,100694.12
2022-10-29T02:01:27.483Z,100699.38
2022-10-29T02:04:16.062Z,100698.06
2022-10-29T02:07:13.293Z,100699.70
2022-10-29T02:09:56.536Z,100696.63
2022-10-29T02:12:32.223Z,100695.11
2022-10-29T02:15:06.962Z,100692.25
2022-10-29T02:17:35.465Z,100686.98
2022-10-29T02:20:05.509Z,100680.89
2022-10-29T02:22:33.288Z,100680.60
2022-10-29T02:25:02.243Z,100678.60
2022-10-29T02:27:29.919Z,100679.33
2022-10-29T02:30:16.455Z,100681.42
2022-10-29T02:33:01.743Z,100680.16
2022-10-29T02:35:29.949Z,100674.77
2022-10-29T02:37:57.572Z,100673.08
2022-10-29T02:40:43.145Z,100664.63
2022-10-29T02:43:10.924Z,100663.55
2022-10-29T02:45:38.648Z,100660.46
2022-10-29T02:48:09.421Z,100658.20
2022-10-29T02:50:54.670Z,100652.88
2022-10-29T02:53:23.974Z,100647.02
2022-10-29T02:55:51.535Z,100649.77
2022-10-29T02:58:19.564Z,100646.06
2022-10-29T03:00:51.327Z,100644.55
2022-10-29T03:03:19.266Z,100647.64
2022-10-29T03:05:49.170Z,100649.36
2022-10-29T03:08:17.873Z,100657.06
2022-10-29T03:10:45.509Z,100660.08
2022-10-29T03:13:13.634Z,100661.30
2022-10-29T03:15:45.047Z,100660.63
2022-10-29T03:18:12.770Z,100660.23
2022-10-29T03:20:40.463Z,100664.85
2022-10-29T03:23:08.360Z,100667.57
2022-10-29T03:25:35.963Z,100668.92
2022-10-29T03:28:05.831Z,100665.96
2022-10-29T03:30:33.936Z,100662.89
2022-10-29T03:33:01.679Z,100669.70
2022-10-29T03:35:29.379Z,100671.58
2022-10-29T03:37:57.368Z,100672.23
2022-10-29T03:40:25.031Z,100671.37
2022-10-29T03:42:52.951Z,100672.83
2022-10-29T03:45:21.384Z,100672.09
2022-10-29T03:47:48.970Z,100676.45
2022-10-29T03:50:34.337Z,100678.44
2022-10-29T03:53:20.004Z,100679.75
2022-10-29T03:55:48.102Z,100670.19
2022-10-29T03:58:15.759Z,100673.42
2022-10-29T04:00:43.532Z,100671.16
2022-10-29T04:03:11.485Z,100675.87
2022-10-29T04:05:39.168Z,100682.81
2022-10-29T04:08:06.812Z,100688.98
2022-10-29T04:10:34.991Z,100691.52
2022-10-29T04:13:02.672Z,100689.84
2022-10-29T04:15:30.346Z,100694.54
2022-10-29T04:17:58.991Z,100694.34
2022-10-29T04:20:43.398Z,100698.58
2022-10-29T04:27:07.959Z,100704.13
2022-10-29T04:28:51.261Z,100715.58
2022-10-29T04:31:37.766Z,100720.59
2022-10-29T04:34:06.526Z,100728.16
2022-10-29T04:36:34.129Z,100732.95
2022-10-29T04:39:22.509Z,100734.16
2022-10-29T04:41:51.204Z,100733.77
2022-10-29T04:44:20.050Z,100734.30
2022-10-29T04:46:48.372Z,100735.42
2022-10-29T04:49:33.778Z,100735.93
2022-10-29T04:52:02.065Z,100738.42
2022-10-29T04:54:29.740Z,100741.40
2022-10-29T04:56:57.424Z,100744.19
2022-10-29T04:59:25.718Z,100748.40
2022-10-29T05:01:53.371Z,100746.15
2022-10-29T05:04:21.042Z,100746.70
2022-10-29T05:06:49.058Z,100745.96
2022-10-29T05:09:16.635Z,100751.54
2022-10-29T05:12:02.159Z,100751.30
2022-10-29T05:14:29.976Z,100752.83
2022-10-29T05:17:15.518Z,100755.30
2022-10-29T05:19:43.528Z,100759.46
2022-10-29T05:22:29.087Z,100759.29
2022-10-29T05:24:56.873Z,100763.79
2022-10-29T05:27:42.321Z,100762.52
2022-10-29T05:30:10.227Z,100769.84
2022-10-29T05:32:37.878Z,100768.22
2022-10-29T05:35:06.169Z,100773.88
2022-10-29T05:37:33.945Z,100780.11
2022-10-29T05:40:01.599Z,100781.35
2022-10-29T05:42:29.657Z,100786.17
2022-10-29T05:44:57.336Z,100784.98
2022-10-29T05:47:24.927Z,100785.89
2022-10-29T05:49:52.681Z,100788.15
2022-10-29T05:52:20.468Z,100790.84
2022-10-29T05:54:48.089Z,100795.40
2022-10-29T05:57:16.032Z,100796.15
2022-10-29T05:59:44.184Z,100796.98
2022-10-29T06:02:11.932Z,100794.17
2022-10-29T06:04:57.229Z,100801.02
2022-10-29T06:07:24.949Z,100802.71
2022-10-29T06:09:52.578Z,100802.55
2022-10-29T06:12:20.373Z,100800.92
2022-10-29T06:14:48.312Z,100800.88
2022-10-29T06:17:34.013Z,100797.93
2022-10-29T06:20:01.925Z,100799.08
2022-10-29T06:22:29.554Z,100802.98
2022-10-29T06:24:57.444Z,100804.23
2022-10-29T06:27:25.851Z,100803.17
2022-10-29T06:29:53.530Z,100805.23
2022-10-29T06:32:39.041Z,100804.27
2022-10-29T06:35:07.736Z,100809.05
2022-10-29T06:37:38.217Z,100807.91
2022-10-29T06:40:06.652Z,100815.69
2022-10-29T06:42:34.384Z,100819.81
2022-10-29T06:45:02.037Z,100820.21
2022-10-29T06:47:52.360Z,100825.73
2022-10-29T06:50:37.908Z,100830.06
2022-10-29T06:53:07.275Z,100824.07
2022-10-29T06:55:35.185Z,100820.30
2022-10-29T06:58:06.018Z,100823.46
2022-10-29T07:00:35.181Z,100824.09
2022-10-29T07:03:21.502Z,100827.09
2022-10-29T07:05:58.892Z,100828.11
2022-10-29T07:08:48.891Z,100826.63
2022-10-29T07:11:16.903Z,100823.93
2022-10-29T07:13:44.762Z,100820.63
2022-10-29T07:16:12.380Z,100821.33
2022-10-29T07:18:40.496Z,100823.42
2022-10-29T07:21:09.701Z,100823.09
2022-10-29T07:23:37.655Z,100828.77
2022-10-29T07:26:05.818Z,100828.82
2022-10-29T07:28:33.406Z,100829.34
2022-10-29T07:31:01.634Z,100828.01
2022-10-29T07:33:31.004Z,100828.91
2022-10-29T07:36:16.084Z,100831.34
2022-10-29T07:39:02.976Z,100826.40
2022-10-29T07:41:30.836Z,100821.98
2022-10-29T07:43:58.528Z,100817.55
2022-10-29T07:46:28.146Z,100819.45
2022-10-29T07:48:56.069Z,100819.35
2022-10-29T07:51:23.656Z,100818.73
2022-10-29T07:53:51.336Z,100824.94
2022-10-29T07:56:19.082Z,100825.34
2022-10-29T07:58:46.673Z,100821.98
2022-10-29T08:01:14.628Z,100823.95
2022-10-29T08:03:42.580Z,100821.09
2022-10-29T08:06:10.400Z,100827.23
2022-10-29T08:08:39.944Z,100825.36
2022-10-29T08:11:08.213Z,100831.46
2022-10-29T08:13:53.667Z,100837.14
2022-10-29T08:16:39.007Z,100837.56
2022-10-29T08:19:11.308Z,100833.88
2022-10-29T08:22:01.246Z,100828.06
2022-10-29T08:24:29.376Z,100826.23
2022-10-29T08:27:14.958Z,100829.05
2022-10-29T08:29:42.993Z,100834.75
2022-10-29T08:32:10.692Z,100835.46
2022-10-29T08:34:38.332Z,100834.22
2022-10-29T08:37:06.135Z,100841.27
2022-10-29T08:39:33.781Z,100838.75
2022-10-29T08:43:16.067Z,100835.43
2022-10-29T08:45:51.511Z,100831.62
2022-10-29T08:48:34.006Z,100826.62
2022-10-29T08:51:31.086Z,100828.34
2022-10-29T08:56:52.127Z,100843.73
2022-10-29T08:59:25.122Z,100847.52
2022-10-29T09:01:53.875Z,100845.68
2022-10-29T09:04:27.934Z,100844.94
2022-10-29T09:07:46.971Z,100843.30
2022-10-29T09:10:34.701Z,100842.34
2022-10-29T09:13:39.760Z,100845.46
2022-10-29T09:16:35.542Z,100847.66
2022-10-29T09:19:19.014Z,100846.59
2022-10-29T09:22:14.587Z,100844.08
2022-10-29T09:25:00.752Z,100838.98
2022-10-29T09:27:39.576Z,100847.84
2022-10-29T09:30:21.560Z,100847.71
2022-10-29T09:33:00.817Z,100847.89
2022-10-29T09:35:45.881Z,100843.37
2022-10-29T09:38:42.976Z,100845.42
2022-10-29T09:41:12.430Z,100842.39
2022-10-29T09:43:46.115Z,100835.48
2022-10-29T09:46:26.185Z,100833.96
2022-10-29T09:49:15.629Z,100837.09
2022-10-29T09:51:52.416Z,100833.65
2022-10-29T09:54:37.983Z,100831.41
2022-10-29T09:57:15.981Z,100834.56
2022-10-29T09:59:51.873Z,100832.54
2022-10-29T10:02:37.410Z,100834.05
2022-10-29T10:05:30.750Z,100837.83
2022-10-29T10:08:11.907Z,100835.20
2022-10-29T10:11:19.607Z,100838.97
2022-10-29T10:13:57.966Z,100836.74
2022-10-29T10:16:33.384Z,100830.98
2022-10-29T10:19:31.910Z,100823.56
2022-10-29T10:22:24.587Z,100828.84
2022-10-29T10:24:52.333Z,100821.09
2022-10-29T10:27:19.965Z,100812.70
2022-10-29T10:30:05.921Z,100814.88
2022-10-29T10:32:50.981Z,100808.84
2022-10-29T10:35:30.554Z,100809.46
2022-10-29T10:38:16.630Z,100812.02
2022-10-29T10:40:45.132Z,100807.73
2022-10-29T10:43:20.815Z,100808.20
2022-10-29T10:45:59.554Z,100798.59
2022-10-29T10:48:33.381Z,100789.27
2022-10-29T10:51:26.141Z,100785.02
2022-10-29T10:53:53.916Z,100784.48
2022-10-29T10:56:23.126Z,100785.75
2022-10-29T10:59:16.044Z,100790.02
2022-10-29T11:01:48.637Z,100792.91
2022-10-29T11:04:21.781Z,100792.35
2022-10-29T11:06:52.767Z,100798.45
2022-10-29T11:09:49.070Z,100784.45
2022-10-29T11:12:52.694Z,100781.69
2022-10-29T11:15:38.949Z,100788.64
2022-10-29T11:18:24.054Z,100783.61
2022-10-29T11:21:22.477Z,100782.12
2022-10-29T11:24:23.750Z,100780.52
2022-10-29T11:26:58.283Z,100780.14
2022-10-29T11:29:53.670Z,100777.97
2022-10-29T11:33:12.913Z,100775.64
2022-10-29T11:35:46.897Z,100771.13
2022-10-29T11:38:31.580Z,100779.40
2022-10-29T11:41:06.843Z,100768.69
2022-10-29T11:43:34.660Z,100761.51
2022-10-29T11:46:11.253Z,100767.95
2022-10-29T11:48:57.142Z,100769.29
2022-10-29T11:51:43.102Z,100765.44
2022-10-29T11:54:18.213Z,100763.11
2022-10-29T11:57:02.394Z,100767.34
2022-10-29T12:00:10.073Z,100764.52
2022-10-29T12:03:06.888Z,100759.49
2022-10-29T12:06:13.585Z,100761.63
2022-10-29T12:08:57.169Z,100749.52
2022-10-29T12:12:12.954Z,100750.77
2022-10-29T12:14:46.479Z,100743.59
2022-10-29T12:17:49.562Z,100741.84
2022-10-29T12:20:27.877Z,100736.34
2022-10-29T12:23:29.564Z,100737.63
2022-10-29T12:26:29.547Z,100727.02
2022-10-29T12:29:11.845Z,100724.73
2022-10-29T12:32:06.529Z,100727.17
2022-10-29T12:35:06.952Z,100721.05
2022-10-29T12:38:15.515Z,100718.53
2022-10-29T12:40:46.951Z,100718.05
2022-10-29T12:43:25.630Z,100717.51
2022-10-29T12:46:20.014Z,100723.02
2022-10-29T12:49:23.957Z,100724.87
2022-10-29T12:54:40.064Z,100723.09
2022-10-29T12:57:13.939Z,100731.02
2022-10-29T13:00:32.103Z,100727.86
2022-10-29T13:03:55.602Z,100731.33
2022-10-29T13:06:43.630Z,100725.77
2022-10-29T13:09:24.662Z,100722.52
2022-10-29T13:11:55.427Z,100721.34
2022-10-29T13:14:25.217Z,100719.98
2022-10-29T13:17:35.256Z,100707.56
2022-10-29T13:20:21.551Z,100710.61
2022-10-29T13:22:57.811Z,100714.66
2022-10-29T13:25:34.753Z,100718.61
2022-10-29T13:28:08.839Z,100722.02
2022-10-29T13:30:38.865Z,100714.86
2022-10-29T13:33:22.068Z,100716.48
2022-10-29T13:35:55.891Z,100711.48
2022-10-29T13:39:04.685Z,100707.33
2022-10-29T13:41:54.050Z,100702.47
2022-10-29T13:44:24.500Z,100705.21
2022-10-29T13:47:31.860Z,100702.11
2022-10-29T13:49:59.739Z,100697.56
2022-10-29T13:52:27.956Z,100697.73
2022-10-29T13:54:59.819Z,100693.54
2022-10-29T13:58:05.160Z,100698.85
2022-10-29T14:00:36.312Z,100695.33
2022-10-29T14:03:29.464Z,100696.48
2022-10-29T14:06:21.101Z,100695.08
2022-10-29T14:09:15.189Z,100690.70
2022-10-29T14:12:05.517Z,100689.39
2022-10-29T14:14:42.276Z,100688.81
2022-10-29T14:17:15.184Z,100685.16
2022-10-29T14:20:00.341Z,100687.41
2022-10-29T14:22:28.178Z,100683.59
2022-10-29T14:24:56.634Z,100682.61
2022-10-29T14:27:24.377Z,100673.61
2022-10-29T14:29:54.678Z,100674.30
2022-10-29T14:32:23.443Z,100675.54
2022-10-29T14:34:51.883Z,100682.57
2022-10-29T14:37:37.626Z,100682.20
2022-10-29T14:40:16.186Z,100683.63
2022-10-29T14:43:01.751Z,100684.94
2022-10-29T14:45:31.970Z,100685.98
2022-10-29T14:48:18.861Z,100684.98
2022-10-29T14:50:49.999Z,100681.78
2022-10-29T14:53:38.271Z,100684.45
2022-10-29T14:56:11.205Z,100683.39
2022-10-29T14:58:39.222Z,100687.08
2022-10-29T15:01:14.099Z,100693.73
2022-10-29T15:03:42.117Z,100693.77
2022-10-29T15:06:26.156Z,100693.98
2022-10-29T15:08:56.959Z,100689.86
2022-10-29T15:11:57.610Z,100691.13
2022-10-29T15:14:48.344Z,100682.82
2022-10-29T15:17:29.378Z,100676.86
2022-10-29T15:20:20.324Z,100675.25
2022-10-29T15:22:53.870Z,100671.90
2022-10-29T15:25:33.038Z,100676.36
2022-10-29T15:28:02.437Z,100681.36
2022-10-29T15:30:34.479Z,100686.67
2022-10-29T15:33:29.258Z,100682.32
2022-10-29T15:35:59.378Z,100678.97
2022-10-29T15:38:52.108Z,100684.58
2022-10-29T15:41:48.786Z,100681.88
2022-10-29T15:44:25.910Z,100683.27
2022-10-29T15:46:58.979Z,100686.89
2022-10-29T15:49:31.530Z,100684.40
2022-10-29T15:52:19.052Z,100681.80
2022-10-29T15:54:47.647Z,100679.58
2022-10-29T15:57:16.308Z,100680.20
2022-10-29T15:59:44.067Z,100686.87
2022-10-29T16:02:17.629Z,100690.27
2022-10-29T16:05:03.705Z,100689.36
2022-10-29T16:07:32.544Z,100700.08
2022-10-29T16:10:01.712Z,100692.49
2022-10-29T16:12:29.475Z,100691.96
2022-10-29T16:14:57.463Z,100696.71
2022-10-29T16:17:25.061Z,100702.13
2022-10-29T16:20:18.582Z,100696.23
2022-10-29T16:22:49.201Z,100697.63
2022-10-29T16:25:28.845Z,100694.00
2022-10-29T16:27:56.977Z,100696.67
2022-10-29T16:30:25.089Z,100693.66
2022-10-29T16:32:53.049Z,100692.25
2022-10-29T16:35:26.221Z,100688.32
2022-10-29T16:37:55.563Z,100690.14
2022-10-29T16:40:42.679Z,100690.97
2022-10-29T16:43:10.992Z,100687.98
2022-10-29T16:45:38.753Z,100687.62
2022-10-29T16:48:06.738Z,100682.52
2022-10-29T16:50:34.628Z,100684.11
2022-10-29T16:53:07.561Z,100682.08
2022-10-29T16:55:38.191Z,100687.72
2022-10-29T16:58:12.191Z,100686.34
2022-10-29T17:01:08.701Z,100680.79
2022-10-29T17:03:39.051Z,100679.02
2022-10-29T17:06:09.042Z,100674.15
2022-10-29T17:08:37.843Z,100673.98
2022-10-29T17:11:08.796Z,100669.41
2022-10-29T17:13:37.275Z,100666.27
2022-10-29T17:16:14.976Z,100667.05
2022-10-29T17:18:42.832Z,100671.75
2022-10-29T17:21:10.966Z,100674.28
2022-10-29T17:23:38.849Z,100669.14
2022-10-29T17:26:24.533Z,100668.29
2022-10-29T17:28:52.214Z,100666.35
2022-10-29T17:31:21.315Z,100672.91
2022-10-29T17:33:49.090Z,100671.80
2022-10-29T17:36:18.531Z,100671.38
2022-10-29T17:39:03.858Z,100668.77
2022-10-29T17:41:31.740Z,100672.63
2022-10-29T17:43:59.463Z,100671.89
2022-10-29T17:46:44.865Z,100674.69
2022-10-29T17:49:13.154Z,100678.27
2022-10-29T17:51:40.754Z,100677.66
2022-10-29T17:54:09.119Z,100674.96
2022-10-29T17:56:54.676Z,100672.74
2022-10-29T17:59:22.670Z,100670.67
2022-10-29T18:01:50.340Z,100670.46
2022-10-29T18:04:18.092Z,100671.88
2022-10-29T18:07:03.766Z,100669.14
2022-10-29T18:09:31.554Z,100672.63
2022-10-29T18:11:59.145Z,100669.92
2022-10-29T18:14:44.798Z,100674.12
2022-10-29T18:17:12.556Z,100678.93
2022-10-29T18:19:40.170Z,100681.80
2022-10-29T18:22:07.988Z,100685.73
2022-10-29T18:24:35.741Z,100685.70
2022-10-29T18:27:03.555Z,100690.12
2022-10-29T18:29:31.300Z,100692.42
2022-10-29T18:31:59.240Z,100687.93
2022-10-29T18:34:26.933Z,100683.27
2022-10-29T18:37:12.720Z,100689.73
2022-10-29T18:39:58.980Z,100691.36
2022-10-29T18:42:29.949Z,100693.31
2022-10-29T18:44:57.536Z,100694.77
2022-10-29T18:47:43.078Z,100695.24
2022-10-29T18:50:10.828Z,100691.32
2022-10-29T18:52:38.437Z,100692.71
2022-10-29T18:55:24.104Z,100688.48
2022-10-29T18:58:09.562Z,100693.09
2022-10-29T19:00:54.890Z,100692.75
2022-10-29T19:03:40.993Z,100692.35
2022-10-29T19:06:13.185Z,100690.10
2022-10-29T19:08:43.451Z,100690.34
2022-10-29T19:11:29.448Z,100693.77
2022-10-29T19:14:02.206Z,100696.34
2022-10-29T19:16:32.295Z,100694.30
2022-10-29T19:19:03.062Z,100692.46
2022-10-29T19:21:34.383Z,100694.81
2022-10-29T19:24:02.535Z,100695.36
2022-10-29T19:26:47.868Z,100688.58
2022-10-29T19:29:16.051Z,100688.52
2022-10-29T19:31:45.005Z,100690.23
2022-10-29T19:34:12.966Z,100689.43
2022-10-29T19:36:41.713Z,100688.32
2022-10-29T19:39:09.329Z,100689.23
2022-10-29T19:41:54.883Z,100688.34
2022-10-29T19:44:22.671Z,100683.41
2022-10-29T19:46:51.097Z,100676.14
2022-10-29T19:49:18.957Z,100671.58
2022-10-29T19:51:46.845Z,100664.23
2022-10-29T19:54:32.579Z,100660.73
2022-10-29T19:57:00.415Z,100656.61
2022-10-29T19:59:28.095Z,100655.62
2022-10-29T20:01:55.957Z,100653.46
2022-10-29T20:04:41.024Z,100648.05
2022-10-29T20:07:09.026Z,100648.92
2022-10-29T20:09:54.228Z,100653.89
2022-10-29T20:12:22.181Z,100657.33
2022-10-29T20:14:49.800Z,100660.80
2022-10-29T20:17:17.711Z,100666.15
2022-10-29T20:20:03.057Z,100666.20
2022-10-29T20:22:50.212Z,100669.02
2022-10-29T20:25:24.033Z,100669.69
2022-10-29T20:28:11.260Z,100663.37
2022-10-29T20:30:39.010Z,100660.11
2022-10-29T20:33:06.650Z,100666.23
2022-10-29T20:35:34.471Z,100664.73
2022-10-29T20:38:20.050Z,100659.68
2022-10-29T20:40:50.629Z,100656.58
2022-10-29T20:43:18.393Z,100661.41
2022-10-29T20:45:46.393Z,100659.60
2022-10-29T20:48:14.082Z,100658.93
2022-10-29T20:50:41.681Z,100660.73
2022-10-29T20:55:42.289Z,100661.95
2022-10-29T20:58:27.866Z,100655.89
2022-10-29T21:00:55.756Z,100661.77
2022-10-29T21:03:23.349Z,100654.02
2022-10-29T21:05:51.181Z,100655.31
2022-10-29T21:08:19.490Z,100652.89
2022-10-29T21:10:47.099Z,100649.21
2022-10-29T21:13:14.946Z,100649.17
2022-10-29T21:15:42.651Z,100650.67
2022-10-29T21:18:10.337Z,100642.25
2022-10-29T21:20:55.888Z,100636.45
2022-10-29T21:23:41.152Z,100636.27
2022-10-29T21:26:20.295Z,100634.40
2022-10-29T21:28:49.586Z,100641.59
2022-10-29T21:31:18.905Z,100647.86
2022-10-29T21:33:49.417Z,100644.66
2022-10-29T21:36:17.005Z,100638.81
2022-10-29T21:38:44.816Z,100633.43
2022-10-29T21:41:12.941Z,100632.98
2022-10-29T21:43:40.883Z,100637.45
2022-10-29T21:46:26.500Z,100634.74
2022-10-29T21:48:55.844Z,100629.96
2022-10-29T21:51:23.554Z,100631.16
2022-10-29T21:53:51.298Z,100636.80
2022-10-29T21:56:19.612Z,100648.20
2022-10-29T21:58:47.240Z,100655.50
2022-10-29T22:01:16.785Z,100655.20
2022-10-29T22:03:46.320Z,100659.38
2022-10-29T22:06:43.201Z,100658.05
2022-10-29T22:09:23.711Z,100658.65
2022-10-29T22:18:39.808Z,100644.40
2022-10-29T22:21:22.016Z,100638.22
2022-10-29T22:26:43.349Z,100639.77
2022-10-29T22:35:33.434Z,100634.29
2022-10-29T22:38:55.990Z,100626.52
2022-10-29T22:41:42.520Z,100630.69
2022-10-29T22:44:13.152Z,100629.30
2022-10-29T22:47:22.304Z,100632.00
2022-10-29T22:50:24.351Z,100630.09
2022-10-29T22:53:21.421Z,100636.98
2022-10-29T22:56:42.287Z,100633.35
2022-10-29T22:59:40.477Z,100630.74
2022-10-29T23:02:08.438Z,100619.33
2022-10-29T23:04:54.494Z,100617.73
2022-10-29T23:07:39.522Z,100617.05
2022-10-29T23:10:25.102Z,100623.90
2022-10-29T23:12:53.009Z,100630.27
2022-10-29T23:15:20.622Z,100624.50
2022-10-29T23:17:52.926Z,100626.33
2022-10-29T23:20:20.721Z,100630.50
2022-10-29T23:22:48.339Z,100630.20
2022-10-29T23:25:16.378Z,100630.41
2022-10-29T23:27:44.755Z,100626.92
2022-10-29T23:30:12.863Z,100629.88
2022-10-29T23:32:40.752Z,100636.23
2022-10-29T23:35:08.675Z,100641.22
2022-10-29T23:37:36.323Z,100635.44
2022-10-29T23:40:22.208Z,100635.29
2022-10-29T23:42:50.159Z,100626.95
2022-10-29T23:45:35.701Z,100625.08
2022-10-29T23:48:03.655Z,100629.08
2022-10-29T23:50:31.447Z,100629.25
2022-10-29T23:52:59.326Z,100634.63
2022-10-29T23:55:45.633Z,100634.55
2022-10-29T23:58:14.902Z,100634.55
